Time,TemperatureF,DewpointF,PressureIn,WindDirection,WindDirectionDegrees,WindSpeedMPH,WindSpeedGustMPH,Humidity,HourlyPrecipIn,Conditions,Clouds,dailyrainin,SolarRadiationWatts/m^2,SoftwareType,DateUTC
2013-11-02 00:04:00,73.0,71.0,-100.00,SE,139,2.0,8.0,94,0.01,,,0.02,0.000000,,2013-11-02 04:04:00,
2013-11-02 00:44:00,73.0,71.0,-100.00,SE,139,2.0,8.0,94,0.01,,,0.02,0.000000,,2013-11-02 04:44:00,
2013-11-02 00:54:00,73.0,71.0,-100.00,SE,139,2.0,8.0,94,0.01,,,0.02,0.000000,,2013-11-02 04:54:00,
2013-11-02 01:42:00,68.0,67.0,-100.00,West,278,3.0,17.0,96,0.44,,,0.46,0.000000,,2013-11-02 05:42:00,
2013-11-02 01:52:00,68.0,67.0,-100.00,West,278,3.0,17.0,96,0.44,,,0.46,0.000000,,2013-11-02 05:52:00,
2013-11-02 02:02:00,68.0,67.0,-100.00,West,278,3.0,17.0,96,0.44,,,0.46,0.000000,,2013-11-02 06:02:00,
2013-11-02 02:43:00,67.0,66.0,-100.00,West,281,3.0,7.0,98,0.25,,,0.71,0.000000,,2013-11-02 06:43:00,
2013-11-02 02:52:00,67.0,66.0,-100.00,West,281,3.0,7.0,98,0.25,,,0.71,0.000000,,2013-11-02 06:52:00,
2013-11-02 03:03:00,67.0,66.0,-100.00,West,281,3.0,7.0,98,0.25,,,0.71,0.000000,,2013-11-02 07:03:00,
2013-11-02 03:42:00,67.0,66.0,-100.00,SSW,194,1.0,4.0,98,0.20,,,0.91,0.000000,,2013-11-02 07:42:00,
2013-11-02 03:52:00,67.0,66.0,-100.00,SSW,194,1.0,4.0,98,0.20,,,0.91,0.000000,,2013-11-02 07:52:00,
2013-11-02 04:02:00,67.0,66.0,-100.00,SSW,194,1.0,4.0,98,0.20,,,0.91,0.000000,,2013-11-02 08:02:00,
2013-11-02 04:22:00,67.0,66.0,-100.00,West,277,3.0,7.0,98,0.08,,,0.99,0.000000,,2013-11-02 08:22:00,
2013-11-02 04:32:00,67.0,66.0,-100.00,West,277,3.0,7.0,98,0.08,,,0.99,0.000000,,2013-11-02 08:32:00,
2013-11-02 04:42:00,67.0,66.0,-100.00,West,277,3.0,7.0,98,0.08,,,0.99,0.000000,,2013-11-02 08:42:00,
2013-11-02 04:52:00,67.0,66.0,-100.00,West,277,3.0,7.0,98,0.08,,,0.99,0.000000,,2013-11-02 08:52:00,
2013-11-02 05:02:00,67.0,66.0,-100.00,West,277,3.0,7.0,98,0.08,,,0.99,0.000000,,2013-11-02 09:02:00,
2013-11-02 05:22:00,66.0,65.0,-100.00,WSW,251,0.0,6.0,98,0.03,,,-99.99,0.000000,,2013-11-02 09:22:00,
2013-11-02 05:33:00,66.0,65.0,-100.00,WSW,251,0.0,6.0,98,0.03,,,-99.99,0.000000,,2013-11-02 09:33:00,
2013-11-02 05:43:00,66.0,65.0,-100.00,WSW,251,0.0,6.0,98,0.03,,,-99.99,0.000000,,2013-11-02 09:43:00,
2013-11-02 05:53:00,66.0,65.0,-100.00,WSW,251,0.0,6.0,98,0.03,,,-99.99,0.000000,,2013-11-02 09:53:00,
2013-11-02 06:03:00,66.0,65.0,-100.00,WSW,251,0.0,6.0,98,0.03,,,-99.99,0.000000,,2013-11-02 10:03:00,
2013-11-02 06:43:00,67.0,66.0,-100.00,WNW,289,1.0,6.0,98,0.01,,,1.03,0.000000,,2013-11-02 10:43:00,
2013-11-02 06:53:00,67.0,66.0,-100.00,WNW,289,1.0,6.0,98,0.01,,,1.03,0.000000,,2013-11-02 10:53:00,
2013-11-02 07:02:00,67.0,66.0,-100.00,WNW,289,1.0,6.0,98,0.01,,,1.03,0.000000,,2013-11-02 11:02:00,
2013-11-02 07:42:00,65.0,64.0,-100.00,West,281,4.0,8.0,96,0.00,,,1.03,0.000000,,2013-11-02 11:42:00,
2013-11-02 07:52:00,65.0,64.0,-100.00,West,281,4.0,8.0,96,0.00,,,1.03,0.000000,,2013-11-02 11:52:00,
2013-11-02 08:02:00,65.0,64.0,-100.00,West,281,4.0,8.0,96,0.00,,,1.03,0.000000,,2013-11-02 12:02:00,
2013-11-02 08:42:00,64.0,63.0,-100.00,NW,326,1.0,6.0,97,0.00,,,1.03,0.000000,,2013-11-02 12:42:00,
2013-11-02 08:52:00,64.0,63.0,-100.00,NW,326,1.0,6.0,97,0.00,,,1.03,0.000000,,2013-11-02 12:52:00,
2013-11-02 09:02:00,64.0,63.0,-100.00,NW,326,1.0,6.0,97,0.00,,,1.03,0.000000,,2013-11-02 13:02:00,
2013-11-02 09:42:00,64.0,63.0,-100.00,West,276,2.0,4.0,97,0.00,,,1.03,20.000000,,2013-11-02 13:42:00,
2013-11-02 09:52:00,64.0,63.0,-100.00,West,276,2.0,4.0,97,0.00,,,1.03,20.000000,,2013-11-02 13:52:00,
2013-11-02 10:02:00,64.0,63.0,-100.00,West,276,2.0,4.0,97,0.00,,,1.03,20.000000,,2013-11-02 14:02:00,
2013-11-02 10:42:00,64.0,63.0,-100.00,West,273,3.0,6.0,96,0.00,,,1.03,68.000000,,2013-11-02 14:42:00,
2013-11-02 10:52:00,64.0,63.0,-100.00,West,273,3.0,6.0,96,0.00,,,1.03,68.000000,,2013-11-02 14:52:00,
2013-11-02 11:02:00,64.0,63.0,-100.00,West,273,3.0,6.0,96,0.00,,,1.03,68.000000,,2013-11-02 15:02:00,
2013-11-02 11:43:00,67.0,64.0,-100.00,West,273,4.0,7.0,89,0.00,,,1.03,206.000000,,2013-11-02 15:43:00,
2013-11-02 11:53:00,67.0,64.0,-100.00,West,273,4.0,7.0,89,0.00,,,1.03,206.000000,,2013-11-02 15:53:00,
2013-11-02 12:03:00,67.0,64.0,-100.00,West,273,4.0,7.0,89,0.00,,,1.03,206.000000,,2013-11-02 16:03:00,
2013-11-02 12:43:00,67.0,61.0,-100.00,WNW,285,5.0,10.0,82,0.00,,,1.03,247.000000,,2013-11-02 16:43:00,
2013-11-02 12:54:00,67.0,61.0,-100.00,WNW,285,5.0,10.0,82,0.00,,,1.03,247.000000,,2013-11-02 16:54:00,
2013-11-02 13:03:00,67.0,61.0,-100.00,WNW,285,5.0,10.0,82,0.00,,,1.03,247.000000,,2013-11-02 17:03:00,
2013-11-02 13:43:00,67.0,61.0,-100.00,WNW,294,3.0,8.0,80,0.00,,,1.03,208.000000,,2013-11-02 17:43:00,
2013-11-02 13:53:00,67.0,61.0,-100.00,WNW,294,3.0,8.0,80,0.00,,,1.03,208.000000,,2013-11-02 17:53:00,
2013-11-02 14:03:00,67.0,61.0,-100.00,WNW,294,3.0,8.0,80,0.00,,,1.03,208.000000,,2013-11-02 18:03:00,
2013-11-02 14:42:00,68.0,57.0,-100.00,West,281,4.0,9.0,69,0.00,,,1.03,224.000000,,2013-11-02 18:42:00,
2013-11-02 14:53:00,68.0,57.0,-100.00,West,281,4.0,9.0,69,0.00,,,1.03,224.000000,,2013-11-02 18:53:00,
2013-11-02 15:02:00,68.0,57.0,-100.00,West,281,4.0,9.0,69,0.00,,,1.03,224.000000,,2013-11-02 19:02:00,
2013-11-02 15:42:00,72.0,54.0,-100.00,West,279,4.0,11.0,54,0.00,,,1.03,539.000000,,2013-11-02 19:42:00,
2013-11-02 15:52:00,72.0,54.0,-100.00,West,279,4.0,11.0,54,0.00,,,1.03,539.000000,,2013-11-02 19:52:00,
2013-11-02 16:02:00,72.0,54.0,-100.00,West,279,4.0,11.0,54,0.00,,,1.03,539.000000,,2013-11-02 20:02:00,
2013-11-02 16:22:00,74.0,51.0,-100.00,West,279,5.0,10.0,45,0.00,,,1.03,611.000000,,2013-11-02 20:22:00,
2013-11-02 16:32:00,74.0,51.0,-100.00,West,279,5.0,10.0,45,0.00,,,1.03,611.000000,,2013-11-02 20:32:00,
2013-11-02 16:43:00,74.0,51.0,-100.00,West,279,5.0,10.0,45,0.00,,,1.03,611.000000,,2013-11-02 20:43:00,
2013-11-02 16:53:00,74.0,51.0,-100.00,West,279,5.0,10.0,45,0.00,,,1.03,611.000000,,2013-11-02 20:53:00,
2013-11-02 17:02:00,74.0,51.0,-100.00,West,279,5.0,10.0,45,0.00,,,1.03,611.000000,,2013-11-02 21:02:00,
2013-11-02 17:22:00,73.0,47.0,-100.00,West,272,5.0,13.0,39,0.00,,,1.03,435.000000,,2013-11-02 21:22:00,
2013-11-02 17:33:00,73.0,47.0,-100.00,West,272,5.0,13.0,39,0.00,,,1.03,435.000000,,2013-11-02 21:33:00,
2013-11-02 17:44:00,73.0,47.0,-100.00,West,272,5.0,13.0,39,0.00,,,1.03,435.000000,,2013-11-02 21:44:00,
2013-11-02 17:54:00,73.0,47.0,-100.00,West,272,5.0,13.0,39,0.00,,,1.03,435.000000,,2013-11-02 21:54:00,
2013-11-02 18:03:00,73.0,47.0,-100.00,West,272,5.0,13.0,39,0.00,,,1.03,435.000000,,2013-11-02 22:03:00,
2013-11-02 18:24:00,67.0,50.0,-100.00,West,266,3.0,8.0,54,0.00,,,1.03,138.000000,,2013-11-02 22:24:00,
2013-11-02 18:34:00,67.0,50.0,-100.00,West,266,3.0,8.0,54,0.00,,,1.03,138.000000,,2013-11-02 22:34:00,
2013-11-02 18:44:00,67.0,50.0,-100.00,West,266,3.0,8.0,54,0.00,,,1.03,138.000000,,2013-11-02 22:44:00,
2013-11-02 18:54:00,67.0,50.0,-100.00,West,266,3.0,8.0,54,0.00,,,1.03,138.000000,,2013-11-02 22:54:00,
2013-11-02 19:02:00,67.0,50.0,-100.00,West,266,3.0,8.0,54,0.00,,,1.03,138.000000,,2013-11-02 23:02:00,
2013-11-02 19:42:00,60.0,57.0,-100.00,SW,225,0.0,4.0,89,0.00,,,1.03,7.000000,,2013-11-02 23:42:00,
2013-11-02 19:52:00,60.0,57.0,-100.00,SW,225,0.0,4.0,89,0.00,,,1.03,7.000000,,2013-11-02 23:52:00,
2013-11-02 20:02:00,60.0,57.0,-100.00,SW,225,0.0,4.0,89,0.00,,,1.03,7.000000,,2013-11-03 00:02:00,
2013-11-02 20:22:00,57.0,55.0,-100.00,WSW,241,0.0,2.0,94,0.00,,,1.03,0.000000,,2013-11-03 00:22:00,
2013-11-02 20:33:00,57.0,55.0,-100.00,WSW,241,0.0,2.0,94,0.00,,,1.03,0.000000,,2013-11-03 00:33:00,
2013-11-02 20:42:00,57.0,55.0,-100.00,WSW,241,0.0,2.0,94,0.00,,,1.03,0.000000,,2013-11-03 00:42:00,
2013-11-02 20:52:00,57.0,55.0,-100.00,WSW,241,0.0,2.0,94,0.00,,,1.03,0.000000,,2013-11-03 00:52:00,
2013-11-02 21:02:00,57.0,55.0,-100.00,WSW,241,0.0,2.0,94,0.00,,,1.03,0.000000,,2013-11-03 01:02:00,
2013-11-02 21:42:00,55.0,54.0,-100.00,SSW,201,0.0,1.0,96,0.00,,,1.03,0.000000,,2013-11-03 01:42:00,
2013-11-02 21:52:00,55.0,54.0,-100.00,SSW,201,0.0,1.0,96,0.00,,,1.03,0.000000,,2013-11-03 01:52:00,
2013-11-02 22:02:00,55.0,54.0,-100.00,SSW,201,0.0,1.0,96,0.00,,,1.03,0.000000,,2013-11-03 02:02:00,
2013-11-02 22:43:00,54.0,53.0,-100.00,SW,224,0.0,2.0,97,0.00,,,1.03,0.000000,,2013-11-03 02:43:00,
2013-11-02 22:52:00,54.0,53.0,-100.00,SW,224,0.0,2.0,97,0.00,,,1.03,0.000000,,2013-11-03 02:52:00,
2013-11-02 23:02:00,54.0,53.0,-100.00,SW,224,0.0,2.0,97,0.00,,,1.03,0.000000,,2013-11-03 03:02:00,
2013-11-02 23:45:00,53.0,52.0,-100.00,NW,304,1.0,3.0,98,0.00,,,1.02,0.000000,,2013-11-03 03:45:00,
2013-11-02 23:54:00,53.0,52.0,-100.00,NW,304,1.0,3.0,98,0.00,,,1.02,0.000000,,2013-11-03 03:54:00,